createdAt,value
2023-05-11T00:00:12.004Z,100678.61
2023-05-11T00:02:39.560Z,100680.37
2023-05-11T00:05:07.444Z,100681.73
2023-05-11T00:07:43.659Z,100679.42
2023-05-11T00:10:10.737Z,100681.46
2023-05-11T00:12:37.766Z,100678.29
2023-05-11T00:15:05.919Z,100678.06
2023-05-11T00:17:33.522Z,100680.70
2023-05-11T00:20:00.539Z,100681.63
2023-05-11T00:22:27.604Z,100680.97
2023-05-11T00:24:55.041Z,100681.65
2023-05-11T00:27:22.020Z,100681.15
2023-05-11T00:29:49.539Z,100682.02
2023-05-11T00:32:17.061Z,100683.08
2023-05-11T00:34:43.996Z,100682.87
2023-05-11T00:37:10.916Z,100684.16
2023-05-11T00:39:39.790Z,100684.06
2023-05-11T00:42:06.758Z,100687.59
2023-05-11T00:44:34.010Z,100685.05
2023-05-11T00:47:01.264Z,100682.27
2023-05-11T00:49:31.654Z,100688.07
2023-05-11T00:52:03.460Z,100684.38
2023-05-11T00:54:31.434Z,100684.30
2023-05-11T00:56:58.334Z,100682.83
2023-05-11T00:59:25.325Z,100679.40
2023-05-11T01:01:52.197Z,100687.48
2023-05-11T01:04:19.115Z,100684.05
2023-05-11T01:07:15.407Z,100684.48
2023-05-11T01:10:03.784Z,100683.17
2023-05-11T01:12:46.173Z,100685.26
2023-05-11T01:15:28.797Z,100684.55
2023-05-11T01:18:06.513Z,100680.89
2023-05-11T01:20:34.485Z,100682.69
2023-05-11T01:23:08.063Z,100683.80
2023-05-11T01:25:39.801Z,100683.52
2023-05-11T01:28:15.293Z,100682.89
2023-05-11T01:30:48.843Z,100684.55
2023-05-11T01:33:31.144Z,100684.23
2023-05-11T01:36:02.475Z,100685.58
2023-05-11T01:38:35.532Z,100684.00
2023-05-11T01:41:06.063Z,100681.50
2023-05-11T01:43:33.573Z,100682.40
2023-05-11T01:46:01.147Z,100681.98
2023-05-11T01:48:31.490Z,100681.30
2023-05-11T01:51:02.447Z,100681.86
2023-05-11T01:53:31.878Z,100684.40
2023-05-11T01:55:59.385Z,100680.87
2023-05-11T01:58:26.399Z,100682.97
2023-05-11T02:00:54.983Z,100681.59
2023-05-11T02:03:22.841Z,100681.35
2023-05-11T02:05:50.183Z,100680.36
2023-05-11T02:08:17.295Z,100681.34
2023-05-11T02:10:44.311Z,100683.88
2023-05-11T02:13:11.218Z,100683.20
2023-05-11T02:15:41.814Z,100681.89
2023-05-11T02:18:13.118Z,100682.52
2023-05-11T02:20:44.206Z,100681.21
2023-05-11T02:23:12.617Z,100680.96
2023-05-11T02:25:45.843Z,100679.02
2023-05-11T02:28:12.735Z,100676.65
2023-05-11T02:30:52.521Z,100676.71
2023-05-11T02:33:21.955Z,100679.04
2023-05-11T02:35:48.848Z,100676.52
2023-05-11T02:38:15.645Z,100676.89
2023-05-11T02:40:46.253Z,100677.45
2023-05-11T02:43:15.832Z,100680.98
2023-05-11T02:45:52.947Z,100684.54
2023-05-11T02:48:25.509Z,100684.37
2023-05-11T02:50:54.857Z,100689.09
2023-05-11T02:53:23.717Z,100688.84
2023-05-11T02:55:50.990Z,100693.55
2023-05-11T02:58:23.583Z,100694.73
2023-05-11T03:00:56.555Z,100692.02
2023-05-11T03:03:29.277Z,100689.80
2023-05-11T03:05:56.200Z,100691.59
2023-05-11T03:08:24.168Z,100692.38
2023-05-11T03:10:51.302Z,100693.02
2023-05-11T03:13:19.573Z,100692.11
2023-05-11T03:15:53.875Z,100692.56
2023-05-11T03:18:21.475Z,100696.64
2023-05-11T03:20:48.399Z,100694.06
2023-05-11T03:23:17.084Z,100694.11
2023-05-11T03:25:49.100Z,100694.30
2023-05-11T03:28:16.564Z,100695.59
2023-05-11T03:30:50.396Z,100697.23
2023-05-11T03:33:22.692Z,100696.53
2023-05-11T03:35:50.776Z,100696.67
2023-05-11T03:38:22.034Z,100697.60
2023-05-11T03:40:49.521Z,100699.48
2023-05-11T03:43:17.598Z,100704.30
2023-05-11T03:45:45.770Z,100702.73
2023-05-11T03:48:20.013Z,100706.52
2023-05-11T03:50:47.050Z,100707.23
2023-05-11T03:53:20.891Z,100707.09
2023-05-11T03:55:49.470Z,100705.38
2023-05-11T03:58:16.485Z,100703.95
2023-05-11T04:00:43.361Z,100704.56
2023-05-11T04:03:12.048Z,100709.76
2023-05-11T04:05:39.016Z,100709.43
2023-05-11T04:08:09.274Z,100713.20
2023-05-11T04:10:38.482Z,100708.69
2023-05-11T04:13:05.553Z,100708.35
2023-05-11T04:15:37.545Z,100711.22
2023-05-11T04:18:05.864Z,100710.10
2023-05-11T04:20:33.252Z,100708.25
2023-05-11T04:23:05.588Z,100710.36
2023-05-11T04:25:33.053Z,100709.73
2023-05-11T04:28:00.013Z,100716.77
2023-05-11T04:30:26.950Z,100718.79
2023-05-11T04:32:54.064Z,100719.57
2023-05-11T04:35:22.925Z,100718.61
2023-05-11T04:37:50.496Z,100717.98
2023-05-11T04:40:17.873Z,100715.16
2023-05-11T04:42:45.436Z,100713.70
2023-05-11T04:45:16.167Z,100713.94
2023-05-11T04:47:44.148Z,100718.27
2023-05-11T04:50:11.436Z,100714.04
2023-05-11T04:52:39.088Z,100711.59
2023-05-11T04:55:07.422Z,100712.71
2023-05-11T04:57:34.942Z,100709.32
2023-05-11T05:00:03.412Z,100707.68
2023-05-11T05:02:31.423Z,100709.32
2023-05-11T05:04:58.293Z,100709.90
2023-05-11T05:07:25.202Z,100713.14
2023-05-11T05:09:52.088Z,100711.62
2023-05-11T05:12:20.059Z,100714.48
2023-05-11T05:14:48.064Z,100711.73
2023-05-11T05:17:17.027Z,100711.98
2023-05-11T05:19:44.025Z,100712.98
2023-05-11T05:22:10.922Z,100710.98
2023-05-11T05:24:37.943Z,100716.02
2023-05-11T05:27:05.006Z,100716.07
2023-05-11T05:29:31.980Z,100713.54
2023-05-11T05:31:59.905Z,100717.20
2023-05-11T05:34:27.347Z,100716.30
2023-05-11T05:36:55.076Z,100711.61
2023-05-11T05:39:21.955Z,100710.90
2023-05-11T05:41:48.955Z,100713.19
2023-05-11T05:44:16.050Z,100713.76
2023-05-11T05:46:43.150Z,100715.14
2023-05-11T05:49:10.364Z,100713.14
2023-05-11T05:51:38.084Z,100712.46
2023-05-11T05:54:05.302Z,100709.64
2023-05-11T05:56:34.396Z,100711.98
2023-05-11T05:59:01.432Z,100712.25
2023-05-11T06:01:29.003Z,100712.62
2023-05-11T06:03:56.474Z,100716.11
2023-05-11T06:06:24.744Z,100716.77
2023-05-11T06:08:51.521Z,100714.68
2023-05-11T06:11:18.266Z,100712.94
2023-05-11T06:13:45.458Z,100710.77
2023-05-11T06:16:12.759Z,100708.14
2023-05-11T06:18:40.246Z,100714.30
2023-05-11T06:21:08.221Z,100713.88
2023-05-11T06:23:37.005Z,100713.65
2023-05-11T06:26:03.986Z,100708.45
2023-05-11T06:28:31.899Z,100711.11
2023-05-11T06:31:03.635Z,100709.86
2023-05-11T06:33:32.368Z,100711.98
2023-05-11T06:36:05.035Z,100714.73
2023-05-11T06:38:32.919Z,100708.88
2023-05-11T06:41:00.158Z,100707.54
2023-05-11T06:43:27.046Z,100705.20
2023-05-11T06:45:54.998Z,100704.73
2023-05-11T06:48:25.442Z,100706.44
2023-05-11T06:50:52.270Z,100703.10
2023-05-11T06:53:19.164Z,100702.94
2023-05-11T06:55:46.162Z,100699.27
2023-05-11T06:58:13.620Z,100696.89
2023-05-11T07:00:40.742Z,100696.20
2023-05-11T07:03:07.787Z,100694.27
2023-05-11T07:05:35.373Z,100701.70
2023-05-11T07:08:03.316Z,100698.97
2023-05-11T07:10:33.207Z,100699.42
2023-05-11T07:13:00.673Z,100698.77
2023-05-11T07:15:27.861Z,100692.02
2023-05-11T07:17:54.758Z,100690.94
2023-05-11T07:20:21.850Z,100689.88
2023-05-11T07:22:49.310Z,100693.88
2023-05-11T07:25:16.119Z,100691.63
2023-05-11T07:27:42.982Z,100689.65
2023-05-11T07:30:10.297Z,100687.85
2023-05-11T07:32:38.244Z,100687.91
2023-05-11T07:35:05.465Z,100689.13
2023-05-11T07:37:32.364Z,100689.14
2023-05-11T07:39:59.182Z,100693.45
2023-05-11T07:42:26.433Z,100693.70
2023-05-11T07:44:53.350Z,100692.14
2023-05-11T07:47:20.424Z,100693.81
2023-05-11T07:49:48.053Z,100689.38
2023-05-11T07:52:15.001Z,100693.89
2023-05-11T07:54:44.270Z,100693.42
2023-05-11T07:57:13.234Z,100696.27
2023-05-11T07:59:45.420Z,100694.02
2023-05-11T08:02:13.413Z,100691.95
2023-05-11T08:04:40.821Z,100688.20
2023-05-11T08:07:08.385Z,100686.41
2023-05-11T08:09:35.272Z,100689.11
2023-05-11T08:12:03.164Z,100686.80
2023-05-11T08:14:30.698Z,100690.52
2023-05-11T08:16:57.526Z,100690.50
2023-05-11T08:19:24.412Z,100689.63
2023-05-11T08:21:51.384Z,100683.67
2023-05-11T08:24:19.408Z,100683.14
2023-05-11T08:26:46.687Z,100680.14
2023-05-11T08:29:13.644Z,100679.79
2023-05-11T08:31:40.582Z,100679.16
2023-05-11T08:34:18.603Z,100681.11
2023-05-11T08:36:47.177Z,100676.77
2023-05-11T08:39:14.742Z,100676.70
2023-05-11T08:41:42.916Z,100669.73
2023-05-11T08:44:09.863Z,100670.20
2023-05-11T08:46:36.782Z,100669.82
2023-05-11T08:49:03.895Z,100673.94
2023-05-11T08:51:32.220Z,100671.79
2023-05-11T08:53:59.531Z,100677.39
2023-05-11T08:56:27.178Z,100683.65
2023-05-11T08:58:56.065Z,100676.67
2023-05-11T09:01:23.373Z,100671.89
2023-05-11T09:03:50.909Z,100666.61
2023-05-11T09:06:17.770Z,100666.92
2023-05-11T09:08:45.283Z,100661.20
2023-05-11T09:11:13.805Z,100662.51
2023-05-11T09:13:40.769Z,100655.51
2023-05-11T09:16:19.580Z,100658.44
2023-05-11T09:18:51.318Z,100659.60
2023-05-11T09:21:21.637Z,100660.81
2023-05-11T09:23:49.143Z,100659.51
2023-05-11T09:26:16.716Z,100661.98
2023-05-11T09:29:02.518Z,100661.64
2023-05-11T09:31:46.570Z,100660.40
2023-05-11T09:34:22.921Z,100663.41
2023-05-11T09:36:54.231Z,100660.48
2023-05-11T09:39:39.878Z,100658.91
2023-05-11T09:42:18.109Z,100658.84
2023-05-11T09:44:46.375Z,100660.91
2023-05-11T09:47:19.477Z,100658.48
2023-05-11T09:49:47.037Z,100662.90
2023-05-11T09:52:16.501Z,100657.88
2023-05-11T09:54:44.925Z,100653.71
2023-05-11T09:57:38.218Z,100652.69
2023-05-11T10:00:08.603Z,100648.23
2023-05-11T10:02:39.787Z,100649.95
2023-05-11T10:05:12.971Z,100654.55
2023-05-11T10:07:40.065Z,100657.70
2023-05-11T10:10:08.119Z,100662.79
2023-05-11T10:12:37.725Z,100660.64
2023-05-11T10:15:08.743Z,100655.20
2023-05-11T10:17:36.334Z,100662.15
2023-05-11T10:20:04.610Z,100660.29
2023-05-11T10:22:32.222Z,100661.10
2023-05-11T10:24:59.357Z,100660.32
2023-05-11T10:27:26.776Z,100660.33
2023-05-11T10:29:53.848Z,100657.04
2023-05-11T10:32:21.927Z,100656.79
2023-05-11T10:34:51.980Z,100658.67
2023-05-11T10:37:20.491Z,100657.23
2023-05-11T10:39:50.276Z,100658.29
2023-05-11T10:42:47.044Z,100660.57
2023-05-11T10:45:48.127Z,100659.14
2023-05-11T10:48:42.053Z,100657.95
2023-05-11T10:51:46.612Z,100659.53
2023-05-11T10:54:28.998Z,100657.97
2023-05-11T10:57:33.785Z,100662.76
2023-05-11T11:00:31.410Z,100660.71
2023-05-11T11:02:58.514Z,100662.94
2023-05-11T11:05:35.375Z,100661.58
2023-05-11T11:08:06.645Z,100657.55
2023-05-11T11:10:34.583Z,100659.95
2023-05-11T11:13:06.107Z,100662.27
2023-05-11T11:15:55.146Z,100662.73
2023-05-11T11:18:28.218Z,100664.40
2023-05-11T11:20:56.084Z,100663.39
2023-05-11T11:23:41.957Z,100661.48
2023-05-11T11:26:10.139Z,100659.43
2023-05-11T11:29:00.158Z,100659.45
2023-05-11T11:31:33.660Z,100660.21
2023-05-11T11:34:28.419Z,100656.91
2023-05-11T11:36:55.340Z,100651.90
2023-05-11T11:39:24.763Z,100645.94
2023-05-11T11:42:04.148Z,100642.75
2023-05-11T11:44:31.072Z,100636.59
2023-05-11T11:47:21.543Z,100638.45
2023-05-11T11:49:49.316Z,100640.42
2023-05-11T11:52:28.364Z,100645.27
2023-05-11T11:55:00.750Z,100643.66
2023-05-11T11:57:33.838Z,100640.89
2023-05-11T12:00:06.181Z,100634.96
2023-05-11T12:02:45.292Z,100631.23
2023-05-11T12:05:13.240Z,100626.27
2023-05-11T12:07:41.613Z,100628.31
2023-05-11T12:10:10.753Z,100625.73
2023-05-11T12:12:38.117Z,100626.98
2023-05-11T12:15:06.775Z,100623.98
2023-05-11T12:17:37.820Z,100620.94
2023-05-11T12:20:14.511Z,100618.57
2023-05-11T12:22:41.636Z,100617.90
2023-05-11T12:25:10.771Z,100622.29
2023-05-11T12:27:57.579Z,100623.98
2023-05-11T12:30:25.361Z,100622.01
2023-05-11T12:35:26.967Z,100627.63
2023-05-11T12:37:53.994Z,100627.63
2023-05-11T12:40:20.938Z,100628.98
2023-05-11T12:42:55.310Z,100629.20
2023-05-11T12:45:24.043Z,100626.79
2023-05-11T12:47:55.040Z,100625.27
2023-05-11T12:50:22.074Z,100628.19
2023-05-11T12:52:49.691Z,100634.30
2023-05-11T12:55:27.308Z,100634.36
2023-05-11T12:57:54.183Z,100637.71
2023-05-11T13:00:21.952Z,100638.34
2023-05-11T13:02:52.787Z,100638.45
2023-05-11T13:05:24.002Z,100639.96
2023-05-11T13:08:04.097Z,100642.66
2023-05-11T13:10:31.073Z,100641.04
2023-05-11T13:12:59.742Z,100642.18
2023-05-11T13:15:27.950Z,100643.48
2023-05-11T13:17:56.444Z,100643.98
2023-05-11T13:20:30.941Z,100644.30
2023-05-11T13:23:05.029Z,100647.02
2023-05-11T13:25:32.386Z,100642.72
2023-05-11T13:28:00.869Z,100642.10
2023-05-11T13:30:27.786Z,100640.33
2023-05-11T13:32:54.972Z,100637.89
2023-05-11T13:35:21.850Z,100637.32
2023-05-11T13:37:48.699Z,100636.36
2023-05-11T13:40:15.545Z,100634.46
2023-05-11T13:42:42.804Z,100635.69
2023-05-11T13:45:11.508Z,100637.21
2023-05-11T13:47:45.530Z,100637.73
2023-05-11T13:50:13.158Z,100635.12
2023-05-11T13:52:41.121Z,100634.73
2023-05-11T13:55:08.147Z,100634.13
2023-05-11T13:57:35.582Z,100635.59
2023-05-11T14:00:02.895Z,100636.05
2023-05-11T14:02:38.769Z,100633.70
2023-05-11T14:05:06.395Z,100636.75
2023-05-11T14:07:43.234Z,100634.69
2023-05-11T14:10:13.883Z,100637.23
2023-05-11T14:12:41.238Z,100636.13
2023-05-11T14:15:08.592Z,100635.38
2023-05-11T14:17:36.269Z,100635.83
2023-05-11T14:20:03.790Z,100637.39
2023-05-11T14:22:31.398Z,100633.39
2023-05-11T14:24:58.271Z,100633.20
2023-05-11T14:27:25.193Z,100630.37
2023-05-11T14:29:52.388Z,100629.59
2023-05-11T14:32:19.700Z,100626.58
2023-05-11T14:34:47.208Z,100627.93
2023-05-11T14:37:14.021Z,100626.75
2023-05-11T14:39:40.966Z,100628.27
2023-05-11T14:42:08.208Z,100625.75
2023-05-11T14:44:35.149Z,100623.11
2023-05-11T14:47:07.107Z,100624.09
2023-05-11T14:49:34.253Z,100619.27
2023-05-11T14:52:01.416Z,100623.14
2023-05-11T14:54:28.602Z,100626.55
2023-05-11T14:56:56.693Z,100629.85
2023-05-11T14:59:25.269Z,100628.14
2023-05-11T15:01:57.338Z,100631.64
2023-05-11T15:04:25.098Z,100628.79
2023-05-11T15:06:52.069Z,100622.73
2023-05-11T15:09:25.671Z,100627.75
2023-05-11T15:11:52.470Z,100625.16
2023-05-11T15:14:19.440Z,100624.38
2023-05-11T15:16:46.580Z,100623.46
2023-05-11T15:19:13.694Z,100625.35
2023-05-11T15:21:40.618Z,100626.47
2023-05-11T15:24:10.700Z,100622.64
2023-05-11T15:26:37.982Z,100622.24
2023-05-11T15:29:04.840Z,100624.23
2023-05-11T15:31:31.975Z,100627.55
2023-05-11T15:33:58.839Z,100632.21
2023-05-11T15:36:29.421Z,100636.66
2023-05-11T15:39:02.936Z,100639.33
2023-05-11T15:41:29.949Z,100641.80
2023-05-11T15:43:56.918Z,100640.31
2023-05-11T15:46:23.947Z,100646.29
2023-05-11T15:48:51.249Z,100647.60
2023-05-11T15:51:18.691Z,100647.15
2023-05-11T15:53:45.619Z,100652.14
2023-05-11T15:56:12.465Z,100651.63
2023-05-11T15:58:39.423Z,100652.48
2023-05-11T16:01:06.391Z,100655.86
2023-05-11T16:03:34.151Z,100659.77
2023-05-11T16:06:01.281Z,100661.58
2023-05-11T16:08:28.346Z,100660.36
2023-05-11T16:10:55.195Z,100660.41
2023-05-11T16:13:22.160Z,100660.50
2023-05-11T16:15:49.036Z,100659.39
2023-05-11T16:18:16.015Z,100659.18
2023-05-11T16:20:43.428Z,100658.22
2023-05-11T16:23:10.329Z,100665.91
2023-05-11T16:25:37.251Z,100667.69
2023-05-11T16:28:04.654Z,100669.11
2023-05-11T16:30:31.886Z,100669.40
2023-05-11T16:32:58.931Z,100668.59
2023-05-11T16:35:26.270Z,100672.21
2023-05-11T16:37:54.484Z,100672.50
2023-05-11T16:40:21.977Z,100675.50
2023-05-11T16:42:49.189Z,100676.66
2023-05-11T16:45:16.093Z,100679.71
2023-05-11T16:47:44.738Z,100683.66
2023-05-11T16:50:15.340Z,100681.75
2023-05-11T16:52:48.081Z,100682.41
2023-05-11T16:55:15.453Z,100687.67
2023-05-11T16:57:43.298Z,100688.05
2023-05-11T17:00:10.967Z,100687.17
2023-05-11T17:02:38.025Z,100692.48
2023-05-11T17:05:06.576Z,100689.45
2023-05-11T17:07:33.763Z,100693.62
2023-05-11T17:10:00.723Z,100695.45
2023-05-11T17:12:28.224Z,100699.20
2023-05-11T17:14:55.245Z,100704.14
2023-05-11T17:17:22.515Z,100701.94
2023-05-11T17:19:49.381Z,100704.41
2023-05-11T17:22:16.254Z,100707.86
2023-05-11T17:24:43.292Z,100708.92
2023-05-11T17:27:10.142Z,100711.11
2023-05-11T17:29:43.869Z,100708.71
2023-05-11T17:32:16.869Z,100711.12
2023-05-11T17:34:43.976Z,100718.78
2023-05-11T17:37:23.753Z,100719.89
2023-05-11T17:39:57.837Z,100721.61
2023-05-11T17:42:25.155Z,100725.98
2023-05-11T17:44:52.133Z,100728.71
2023-05-11T17:47:19.175Z,100731.58
2023-05-11T17:49:46.004Z,100732.64
2023-05-11T17:52:13.143Z,100732.48
2023-05-11T17:54:39.985Z,100736.70
2023-05-11T17:57:07.021Z,100739.27
2023-05-11T17:59:34.834Z,100742.30
2023-05-11T18:02:01.729Z,100744.45
2023-05-11T18:04:29.388Z,100744.02
2023-05-11T18:06:56.692Z,100747.56
2023-05-11T18:09:23.736Z,100745.40
2023-05-11T18:11:50.710Z,100749.05
2023-05-11T18:14:17.568Z,100748.50
2023-05-11T18:16:44.434Z,100750.16
2023-05-11T18:19:11.328Z,100750.23
2023-05-11T18:21:39.730Z,100749.40
2023-05-11T18:24:08.860Z,100753.70
2023-05-11T18:26:36.149Z,100753.80
2023-05-11T18:29:03.212Z,100752.48
2023-05-11T18:31:31.082Z,100753.21
2023-05-11T18:33:58.092Z,100753.15
2023-05-11T18:36:25.767Z,100758.63
2023-05-11T18:38:53.277Z,100758.63
2023-05-11T18:41:21.005Z,100762.89
2023-05-11T18:43:48.401Z,100763.71
2023-05-11T18:46:15.845Z,100762.77
2023-05-11T18:48:44.253Z,100760.31
2023-05-11T18:51:11.530Z,100763.24
2023-05-11T18:53:38.515Z,100760.30
2023-05-11T18:56:07.018Z,100761.95
2023-05-11T18:58:34.169Z,100763.31
2023-05-11T19:01:01.000Z,100765.67
2023-05-11T19:03:30.476Z,100761.05
2023-05-11T19:05:58.823Z,100764.39
2023-05-11T19:08:25.775Z,100763.94
2023-05-11T19:10:52.695Z,100763.30
2023-05-11T19:13:20.042Z,100764.27
2023-05-11T19:15:46.786Z,100766.65
2023-05-11T19:18:14.200Z,100768.51
2023-05-11T19:20:41.107Z,100770.09
2023-05-11T19:23:08.122Z,100768.62
2023-05-11T19:25:40.413Z,100768.95
2023-05-11T19:28:07.209Z,100769.80
2023-05-11T19:30:34.134Z,100771.45
2023-05-11T19:33:01.670Z,100773.14
2023-05-11T19:35:33.771Z,100773.27
2023-05-11T19:38:00.799Z,100775.13
2023-05-11T19:40:45.520Z,100774.66
2023-05-11T19:43:13.583Z,100777.17
2023-05-11T19:45:47.859Z,100776.10
2023-05-11T19:48:15.961Z,100773.48
2023-05-11T19:50:43.657Z,100775.05
2023-05-11T19:53:10.646Z,100772.30
2023-05-11T19:55:39.073Z,100770.39
2023-05-11T19:58:06.326Z,100772.16
2023-05-11T20:00:33.246Z,100774.29
2023-05-11T20:03:00.529Z,100772.77
2023-05-11T20:05:27.465Z,100772.79
2023-05-11T20:07:59.898Z,100771.20
2023-05-11T20:10:27.012Z,100771.27
2023-05-11T20:12:59.065Z,100773.06
2023-05-11T20:15:25.966Z,100774.52
2023-05-11T20:17:58.170Z,100770.67
2023-05-11T20:20:25.249Z,100772.52
2023-05-11T20:22:52.189Z,100775.02
2023-05-11T20:25:19.204Z,100774.38
2023-05-11T20:27:46.292Z,100776.38
2023-05-11T20:30:13.644Z,100778.36
2023-05-11T20:34:06.648Z,100779.77
2023-05-11T20:35:27.849Z,100777.02
2023-05-11T20:37:55.050Z,100777.87
2023-05-11T20:40:22.014Z,100773.75
2023-05-11T20:42:49.024Z,100768.59
2023-05-11T20:45:16.009Z,100776.55
2023-05-11T20:47:42.915Z,100774.26
2023-05-11T20:50:10.517Z,100776.52
2023-05-11T20:52:37.399Z,100779.02
2023-05-11T20:55:05.180Z,100780.54
2023-05-11T20:57:32.297Z,100782.50
2023-05-11T21:02:29.559Z,100784.47
2023-05-11T21:05:01.710Z,100785.58
2023-05-11T21:07:29.220Z,100786.52
2023-05-11T21:10:01.028Z,100783.13
2023-05-11T21:12:28.275Z,100786.15
2023-05-11T21:14:57.009Z,100783.52
2023-05-11T21:17:24.338Z,100784.15
2023-05-11T21:19:56.291Z,100785.52
2023-05-11T21:22:23.096Z,100781.61
2023-05-11T21:24:55.020Z,100781.93
2023-05-11T21:27:21.857Z,100785.31
2023-05-11T21:29:50.237Z,100783.14
2023-05-11T21:32:17.054Z,100784.20
2023-05-11T21:34:44.000Z,100787.59
2023-05-11T21:37:14.011Z,100787.61
2023-05-11T21:39:41.049Z,100787.05
2023-05-11T21:42:07.821Z,100787.90
2023-05-11T21:44:35.501Z,100786.77
2023-05-11T21:47:02.396Z,100787.05
2023-05-11T21:49:29.349Z,100786.23
2023-05-11T21:52:01.116Z,100784.02
2023-05-11T21:54:27.927Z,100786.96
2023-05-11T21:56:54.885Z,100781.59
2023-05-11T21:59:25.882Z,100785.13
2023-05-11T22:01:54.146Z,100788.19
2023-05-11T22:04:21.145Z,100787.21
2023-05-11T22:06:48.080Z,100789.55
2023-05-11T22:09:15.319Z,100791.88
2023-05-11T22:11:42.461Z,100791.56
2023-05-11T22:14:09.763Z,100789.80
2023-05-11T22:16:41.807Z,100790.79
2023-05-11T22:19:08.796Z,100787.29
2023-05-11T22:21:35.878Z,100793.64
2023-05-11T22:24:03.627Z,100790.49
2023-05-11T22:26:30.574Z,100787.07
2023-05-11T22:28:57.409Z,100788.76
2023-05-11T22:31:26.197Z,100791.54
2023-05-11T22:33:53.030Z,100789.92
2023-05-11T22:36:19.874Z,100791.58
2023-05-11T22:38:46.659Z,100787.40
2023-05-11T22:41:13.528Z,100787.89
2023-05-11T22:43:40.331Z,100787.88
2023-05-11T22:46:07.551Z,100788.87
2023-05-11T22:48:34.616Z,100789.59
2023-05-11T22:51:03.234Z,100789.99
2023-05-11T22:53:30.248Z,100793.66
2023-05-11T22:55:57.274Z,100796.42
2023-05-11T22:58:24.613Z,100791.75
2023-05-11T23:00:55.210Z,100790.46
2023-05-11T23:03:22.180Z,100792.17
2023-05-11T23:05:49.058Z,100792.36
2023-05-11T23:08:15.926Z,100793.77
2023-05-11T23:10:42.787Z,100796.52
2023-05-11T23:13:10.284Z,100793.73
2023-05-11T23:15:37.125Z,100794.04
2023-05-11T23:18:04.180Z,100791.57
2023-05-11T23:20:31.155Z,100790.39
2023-05-11T23:23:03.135Z,100788.42
2023-05-11T23:25:30.427Z,100793.27
2023-05-11T23:27:57.264Z,100793.65
2023-05-11T23:30:24.158Z,100795.40
2023-05-11T23:32:51.000Z,100794.77
2023-05-11T23:35:17.863Z,100794.23
2023-05-11T23:37:44.760Z,100797.33
2023-05-11T23:40:11.694Z,100795.18
2023-05-11T23:42:38.642Z,100797.09
2023-05-11T23:45:07.473Z,100798.19
2023-05-11T23:47:34.523Z,100795.20
2023-05-11T23:50:01.568Z,100798.20
2023-05-11T23:52:29.159Z,100799.14
2023-05-11T23:54:56.142Z,100798.19
2023-05-11T23:57:28.055Z,100800.73
2023-05-11T23:59:55.492Z,100799.55
